DAUL

Laghouat Airport

Laghouat, Algeria
TAF DAUL 221400Z 2215/2224 32015KT 9999 BKN023 PROB40 TEMPO 2215/2218 34020G30KT FEW023TCU
Issued Valid From Valid To
Jan-22 @ 14:00 UTC
(3 hours ago)
Jan-22 @ 15:00 UTC
(2 hours ago)
Jan-23 @ 00:00 UTC
(in 7 hours)
Jan-22 @ 15:00 to Jan-23 @ 00:00
TAF DAUL 221400Z 2215/2224 32015KT 9999 BKN023
Wind Visibility Clouds
320° at 15 knots 10,000+ meters
  • Broken at 2,300' AGL
Temporary  (Probability 40%) Jan-22 @ 15:00 to Jan-22 @ 18:00
PROB40 TEMPO 2215/2218 34020G30KT FEW023TCU
Wind Clouds
340° at 20 knots
 Gusting to 30 knots
  • Few at 2,300' AGL
TAF DAUL 221400Z 2215/2224 32015KT 9999 BKN023 PROB40 TEMPO 2215/2218 34020G30KT FEW023TCU
Issued Jan-22 @ 14:00 UTC
(3 hours ago)
Valid From Jan-22 @ 15:00 UTC
(2 hours ago)
Valid To Jan-23 @ 00:00 UTC
(in 7 hours)
Jan-22 @ 15:00 - Jan-23 @ 00:00
Wind Visibility
320° at 15 knots 10,000+ meters
Clouds
  • Broken at 2,300' AGL
Probability 40% Temporary Jan-22 @ 15:00 - Jan-22 @ 18:00
Wind
340° at 20 knots
 Gusting to 30 knots
Clouds
  • Few at 2,300' AGL